createdAt,value
2022-08-18T00:00:52.195Z,100830.28
2022-08-18T00:04:03.281Z,100832.31
2022-08-18T00:07:08.067Z,100841.94
2022-08-18T00:10:17.894Z,100840.59
2022-08-18T00:13:20.645Z,100834.06
2022-08-18T00:16:22.480Z,100842.38
2022-08-18T00:19:46.638Z,100848.84
2022-08-18T00:22:47.326Z,100860.69
2022-08-18T00:25:49.962Z,100863.75
2022-08-18T00:28:51.548Z,100862.44
2022-08-18T00:31:53.364Z,100855.88
2022-08-18T00:34:55.212Z,100850.31
2022-08-18T00:38:00.261Z,100854.03
2022-08-18T00:41:02.068Z,100857.56
2022-08-18T00:44:04.638Z,100862.97
2022-08-18T00:47:06.433Z,100877.34
2022-08-18T00:50:09.562Z,100873.09
2022-08-18T00:53:35.529Z,100867.84
2022-08-18T00:56:45.339Z,100875.25
2022-08-18T01:00:05.385Z,100874.56
2022-08-18T01:03:12.809Z,100874.75
2022-08-18T01:06:33.367Z,100880.28
2022-08-18T01:09:35.580Z,100884.81
2022-08-18T01:12:45.611Z,100875.19
2022-08-18T01:15:48.125Z,100874.66
2022-08-18T01:19:08.327Z,100870.44
2022-08-18T01:22:28.823Z,100882.00
2022-08-18T01:25:50.861Z,100885.03
2022-08-18T01:28:54.122Z,100888.88
2022-08-18T01:31:56.374Z,100881.81
2022-08-18T01:34:59.275Z,100879.09
2022-08-18T01:38:00.805Z,100872.84
2022-08-18T01:41:28.656Z,100873.84
2022-08-18T01:44:24.133Z,100874.31
2022-08-18T01:47:25.746Z,100872.22
2022-08-18T01:50:27.400Z,100878.09
2022-08-18T01:53:29.199Z,100875.00
2022-08-18T01:56:30.861Z,100875.63
2022-08-18T01:59:32.486Z,100877.94
2022-08-18T02:02:34.277Z,100881.09
2022-08-18T02:05:44.305Z,100876.16
2022-08-18T02:08:53.548Z,100873.91
2022-08-18T02:11:56.285Z,100870.81
2022-08-18T02:14:58.010Z,100867.75
2022-08-18T02:17:59.568Z,100868.22
2022-08-18T02:21:10.353Z,100853.47
2022-08-18T02:24:12.162Z,100847.69
2022-08-18T02:27:15.520Z,100842.78
2022-08-18T02:30:18.724Z,100845.75
2022-08-18T02:33:20.379Z,100851.47
2022-08-18T02:36:23.975Z,100844.53
2022-08-18T02:39:27.884Z,100844.00
2022-08-18T02:42:30.393Z,100853.38
2022-08-18T02:45:32.833Z,100850.13
2022-08-18T02:48:35.206Z,100844.47
2022-08-18T02:51:36.828Z,100843.22
2022-08-18T02:54:38.776Z,100850.75
2022-08-18T02:57:46.698Z,100840.13
2022-08-18T03:00:48.640Z,100838.41
2022-08-18T03:03:50.594Z,100839.28
2022-08-18T03:06:52.373Z,100855.16
2022-08-18T03:09:53.917Z,100843.38
2022-08-18T03:12:55.509Z,100849.59
2022-08-18T03:15:57.752Z,100855.84
2022-08-18T03:19:01.571Z,100839.38
2022-08-18T03:22:04.343Z,100840.94
2022-08-18T03:25:25.980Z,100845.16
2022-08-18T03:28:28.721Z,100855.69
2022-08-18T03:31:31.489Z,100840.22
2022-08-18T03:34:33.124Z,100837.06
2022-08-18T03:37:34.713Z,100846.53
2022-08-18T03:40:37.202Z,100851.63
2022-08-18T03:43:50.708Z,100855.00
2022-08-18T03:46:53.119Z,100855.56
2022-08-18T03:49:54.673Z,100860.78
2022-08-18T03:52:59.480Z,100872.13
2022-08-18T03:56:01.331Z,100885.16
2022-08-18T03:59:07.842Z,100877.63
2022-08-18T04:02:11.453Z,100875.44
2022-08-18T04:05:14.590Z,100883.22
2022-08-18T04:08:16.701Z,100882.94
2022-08-18T04:11:18.254Z,100889.72
2022-08-18T04:14:22.215Z,100891.13
2022-08-18T04:17:24.873Z,100878.16
2022-08-18T04:20:26.660Z,100876.00
2022-08-18T04:23:28.308Z,100859.53
2022-08-18T04:26:37.045Z,100862.75
2022-08-18T04:29:38.776Z,100866.00
2022-08-18T04:32:40.438Z,100861.28
2022-08-18T04:35:42.086Z,100862.66
2022-08-18T04:38:44.696Z,100865.22
2022-08-18T04:41:46.306Z,100873.16
2022-08-18T04:44:47.877Z,100875.00
2022-08-18T04:47:49.512Z,100879.25
2022-08-18T04:50:51.069Z,100877.25
2022-08-18T04:53:52.957Z,100871.84
2022-08-18T04:56:55.145Z,100878.66
2022-08-18T04:59:58.215Z,100879.34
2022-08-18T05:03:00.345Z,100883.75
2022-08-18T05:06:04.767Z,100884.56
2022-08-18T05:09:09.009Z,100883.75
2022-08-18T05:12:14.207Z,100890.69
2022-08-18T05:15:17.720Z,100891.50
2022-08-18T05:18:20.309Z,100891.66
2022-08-18T05:21:23.753Z,100890.81
2022-08-18T05:24:32.193Z,100901.69
2022-08-18T05:27:38.244Z,100902.81
2022-08-18T05:30:41.289Z,100904.25
2022-08-18T05:33:43.832Z,100909.88
2022-08-18T05:36:59.217Z,100903.31
2022-08-18T05:40:11.384Z,100909.44
2022-08-18T05:43:15.294Z,100907.22
2022-08-18T05:46:17.497Z,100905.75
2022-08-18T05:49:25.960Z,100899.72
2022-08-18T05:52:38.510Z,100906.69
2022-08-18T05:56:05.180Z,100902.97
2022-08-18T05:59:07.725Z,100907.22
2022-08-18T06:02:18.328Z,100908.06
2022-08-18T06:05:26.889Z,100907.22
2022-08-18T06:08:53.253Z,100904.19
2022-08-18T06:12:05.276Z,100919.06
2022-08-18T06:15:18.137Z,100916.22
2022-08-18T06:18:54.290Z,100923.16
2022-08-18T06:22:07.763Z,100922.00
2022-08-18T06:25:18.731Z,100909.69
2022-08-18T06:28:22.125Z,100907.53
2022-08-18T06:31:37.158Z,100910.91
2022-08-18T06:35:04.605Z,100916.84
2022-08-18T06:38:38.787Z,100920.06
2022-08-18T06:41:49.072Z,100926.50
2022-08-18T06:45:01.116Z,100925.69
2022-08-18T06:48:19.093Z,100934.03
2022-08-18T06:51:23.139Z,100936.06
2022-08-18T06:54:30.024Z,100941.16
2022-08-18T06:57:35.446Z,100949.09
2022-08-18T07:00:42.339Z,100946.09
2022-08-18T07:03:56.593Z,100953.56
2022-08-18T07:06:58.374Z,100958.47
2022-08-18T07:10:00.538Z,100960.69
2022-08-18T07:13:08.506Z,100965.78
2022-08-18T07:16:40.563Z,100960.19
2022-08-18T07:19:56.684Z,100969.69
2022-08-18T07:23:08.066Z,100970.03
2022-08-18T07:26:10.171Z,100974.28
2022-08-18T07:29:15.974Z,100970.22
2022-08-18T07:32:21.998Z,100971.94
2022-08-18T07:35:35.564Z,100980.72
2022-08-18T07:38:54.002Z,100980.53
2022-08-18T07:42:06.588Z,100987.16
2022-08-18T07:45:37.291Z,100981.25
2022-08-18T07:48:40.018Z,100983.44
2022-08-18T07:52:04.998Z,100981.78
2022-08-18T07:55:16.838Z,100978.75
2022-08-18T07:58:27.404Z,100984.50
2022-08-18T08:01:54.894Z,100991.34
2022-08-18T08:05:44.390Z,100997.56
2022-08-18T08:08:59.137Z,100991.47
2022-08-18T08:12:37.863Z,101002.16
2022-08-18T08:16:23.886Z,101004.69
2022-08-18T08:19:59.410Z,101005.19
2022-08-18T08:23:22.082Z,101008.59
2022-08-18T08:26:41.174Z,101007.75
2022-08-18T08:30:05.525Z,101003.31
2022-08-18T08:33:16.032Z,101001.47
2022-08-18T08:36:30.480Z,101008.75
2022-08-18T08:39:57.878Z,101008.59
2022-08-18T08:43:18.244Z,101022.16
2022-08-18T08:46:30.083Z,101016.22
2022-08-18T08:49:39.231Z,101014.88
2022-08-18T08:52:44.802Z,101016.06
2022-08-18T08:55:51.186Z,101015.41
2022-08-18T08:58:59.233Z,101011.31
2022-08-18T09:02:15.950Z,101013.34
2022-08-18T09:05:29.115Z,101019.81
2022-08-18T09:08:39.287Z,101017.25
2022-08-18T09:12:13.380Z,101015.22
2022-08-18T09:15:34.139Z,101008.44
2022-08-18T09:18:54.458Z,101003.34
2022-08-18T09:22:11.973Z,100997.22
2022-08-18T09:25:38.352Z,100993.97
2022-08-18T09:28:56.551Z,100994.31
2022-08-18T09:32:20.298Z,100999.72
2022-08-18T09:35:54.644Z,100990.72
2022-08-18T09:39:54.903Z,100995.41
2022-08-18T09:43:11.353Z,100996.91
2022-08-18T09:46:13.688Z,101004.34
2022-08-18T09:49:26.657Z,101006.03
2022-08-18T09:56:01.306Z,101000.94
2022-08-18T09:59:10.766Z,101010.78
2022-08-18T10:02:33.848Z,101008.09
2022-08-18T10:05:40.105Z,101006.38
2022-08-18T10:09:26.758Z,101004.69
2022-08-18T10:12:56.614Z,101005.69
2022-08-18T10:16:11.021Z,101003.69
2022-08-18T10:19:39.843Z,101000.47
2022-08-18T10:22:49.188Z,101004.09
2022-08-18T10:25:55.244Z,101004.41
2022-08-18T10:29:04.108Z,101007.22
2022-08-18T10:32:08.381Z,101015.97
2022-08-18T10:35:37.721Z,101024.50
2022-08-18T10:38:46.122Z,101022.66
2022-08-18T10:41:58.599Z,101030.47
2022-08-18T10:45:24.591Z,101029.63
2022-08-18T10:48:30.450Z,101027.91
2022-08-18T10:52:00.594Z,101027.72
2022-08-18T10:55:14.574Z,101023.47
2022-08-18T10:58:40.691Z,101032.94
2022-08-18T11:02:16.240Z,101034.66
2022-08-18T11:05:22.361Z,101026.50
2022-08-18T11:08:25.018Z,101028.44
2022-08-18T11:12:01.791Z,101025.25
2022-08-18T11:15:22.788Z,101033.06
2022-08-18T11:18:44.023Z,101050.25
2022-08-18T11:21:51.127Z,101042.81
2022-08-18T11:24:56.309Z,101040.81
2022-08-18T11:27:59.678Z,101044.78
2022-08-18T11:31:02.682Z,101047.31
2022-08-18T11:34:19.683Z,101051.06
2022-08-18T11:37:49.279Z,101045.34
2022-08-18T11:41:12.084Z,101043.03
2022-08-18T11:44:19.997Z,101047.13
2022-08-18T11:47:23.640Z,101062.28
2022-08-18T11:50:32.030Z,101056.09
2022-08-18T11:53:33.654Z,101045.78
2022-08-18T11:56:38.479Z,101046.78
2022-08-18T11:59:54.593Z,101041.16
2022-08-18T12:03:28.410Z,101038.91
2022-08-18T12:06:32.305Z,101044.16
2022-08-18T12:13:08.547Z,101051.50
2022-08-18T12:16:33.325Z,101049.31
2022-08-18T12:19:35.028Z,101051.50
2022-08-18T12:22:38.997Z,101052.63
2022-08-18T12:25:40.631Z,101042.41
2022-08-18T12:28:42.268Z,101052.44
2022-08-18T12:31:48.245Z,101055.72
2022-08-18T12:34:50.942Z,101061.03
2022-08-18T12:38:05.050Z,101050.72
2022-08-18T12:41:18.613Z,101041.44
2022-08-18T12:44:27.322Z,101046.56
2022-08-18T12:47:31.240Z,101027.63
2022-08-18T12:50:42.618Z,101027.72
2022-08-18T12:53:58.388Z,101035.06
2022-08-18T12:57:06.691Z,101039.00
2022-08-18T13:00:09.595Z,101043.53
2022-08-18T13:03:19.372Z,101041.59
2022-08-18T13:06:23.029Z,101042.75
2022-08-18T13:09:48.141Z,101048.28
2022-08-18T13:12:55.694Z,101054.00
2022-08-18T13:16:03.314Z,101056.94
2022-08-18T13:19:06.109Z,101065.59
2022-08-18T13:22:07.830Z,101071.03
2022-08-18T13:25:32.199Z,101064.22
2022-08-18T13:28:56.808Z,101073.41
2022-08-18T13:31:59.611Z,101064.97
2022-08-18T13:35:02.518Z,101049.69
2022-08-18T13:38:15.847Z,101044.06
2022-08-18T13:44:26.977Z,101044.63
2022-08-18T13:47:29.366Z,101051.88
2022-08-18T13:50:31.804Z,101053.38
2022-08-18T13:53:37.534Z,101061.91
2022-08-18T13:56:53.482Z,101078.13
2022-08-18T13:59:55.094Z,101088.50
2022-08-18T14:02:58.841Z,101068.47
2022-08-18T14:06:02.890Z,101054.84
2022-08-18T14:09:19.335Z,101059.34
2022-08-18T14:12:28.194Z,101045.81
2022-08-18T14:15:36.365Z,101049.75
2022-08-18T14:18:39.104Z,101055.13
2022-08-18T14:22:02.567Z,101065.91
2022-08-18T14:25:23.237Z,101060.59
2022-08-18T14:28:25.593Z,101072.41
2022-08-18T14:31:27.381Z,101072.06
2022-08-18T14:34:29.747Z,101083.41
2022-08-18T14:37:32.024Z,101083.53
2022-08-18T14:40:37.245Z,101086.06
2022-08-18T14:44:11.323Z,101088.78
2022-08-18T14:47:07.333Z,101084.72
2022-08-18T14:50:13.384Z,101078.81
2022-08-18T14:53:20.622Z,101072.97
2022-08-18T14:56:22.227Z,101088.88
2022-08-18T14:59:28.438Z,101085.41
2022-08-18T15:02:30.563Z,101089.38
2022-08-18T15:05:33.929Z,101089.66
2022-08-18T15:08:37.369Z,101098.88
2022-08-18T15:11:38.995Z,101098.91
2022-08-18T15:14:43.385Z,101100.81
2022-08-18T15:17:52.601Z,101093.56
2022-08-18T15:21:34.798Z,101091.94
2022-08-18T15:24:53.271Z,101092.34
2022-08-18T15:27:54.843Z,101079.47
2022-08-18T15:34:20.592Z,101070.78
2022-08-18T15:37:24.301Z,101075.22
2022-08-18T15:40:30.847Z,101085.22
2022-08-18T15:43:45.912Z,101084.56
2022-08-18T15:46:53.313Z,101083.06
2022-08-18T15:49:55.235Z,101087.13
2022-08-18T15:53:07.993Z,101084.78
2022-08-18T15:56:20.984Z,101095.31
2022-08-18T15:59:22.830Z,101088.50
2022-08-18T16:02:34.838Z,101083.09
2022-08-18T16:05:52.692Z,101086.78
2022-08-18T16:08:55.125Z,101076.25
2022-08-18T16:12:00.235Z,101073.19
2022-08-18T16:15:04.141Z,101068.63
2022-08-18T16:18:10.663Z,101071.88
2022-08-18T16:21:15.723Z,101070.69
2022-08-18T16:24:18.403Z,101074.94
2022-08-18T16:27:20.505Z,101079.56
2022-08-18T16:30:24.481Z,101063.31
2022-08-18T16:33:26.772Z,101060.09
2022-08-18T16:36:28.469Z,101063.84
2022-08-18T16:39:33.728Z,101066.06
2022-08-18T16:42:35.858Z,101072.88
2022-08-18T16:45:38.400Z,101070.31
2022-08-18T16:48:40.645Z,101066.09
2022-08-18T16:51:46.568Z,101066.97
2022-08-18T16:54:48.495Z,101067.50
2022-08-18T16:58:18.125Z,101068.34
2022-08-18T17:01:48.590Z,101077.31
2022-08-18T17:04:53.994Z,101076.66
2022-08-18T17:07:55.556Z,101090.28
2022-08-18T17:10:57.908Z,101083.81
2022-08-18T17:14:01.746Z,101085.50
2022-08-18T17:17:05.735Z,101086.88
2022-08-18T17:20:10.994Z,101092.31
2022-08-18T17:23:13.289Z,101100.78
2022-08-18T17:27:25.713Z,101098.25
2022-08-18T17:30:32.264Z,101105.34
2022-08-18T17:33:37.350Z,101100.97
2022-08-18T17:36:53.831Z,101103.81
2022-08-18T17:40:02.296Z,101088.59
2022-08-18T17:43:05.717Z,101093.16
2022-08-18T17:46:10.364Z,101099.78
2022-08-18T17:49:47.241Z,101098.06
2022-08-18T17:52:54.323Z,101093.34
2022-08-18T17:56:05.415Z,101096.56
2022-08-18T17:59:45.838Z,101101.31
2022-08-18T18:02:33.924Z,101101.47
2022-08-18T18:05:44.286Z,101099.03
2022-08-18T18:08:58.170Z,101094.81
2022-08-18T18:12:23.403Z,101105.81
2022-08-18T18:15:31.618Z,101090.94
2022-08-18T18:18:42.847Z,101085.00
2022-08-18T18:21:55.284Z,101085.50
2022-08-18T18:25:06.626Z,101086.19
2022-08-18T18:28:26.193Z,101080.56
2022-08-18T18:31:30.350Z,101079.22
2022-08-18T18:34:39.555Z,101084.13
2022-08-18T18:37:55.404Z,101097.16
2022-08-18T18:41:21.989Z,101090.53
2022-08-18T18:44:29.717Z,101089.19
2022-08-18T18:48:03.690Z,101085.28
2022-08-18T18:51:12.846Z,101090.34
2022-08-18T18:54:33.011Z,101083.91
2022-08-18T18:58:06.978Z,101083.88
2022-08-18T19:01:21.261Z,101077.25
2022-08-18T19:04:49.489Z,101078.56
2022-08-18T19:07:57.483Z,101078.41
2022-08-18T19:11:41.259Z,101085.31
2022-08-18T19:14:59.569Z,101079.19
2022-08-18T19:18:13.342Z,101094.38
2022-08-18T19:22:04.168Z,101089.78
2022-08-18T19:25:18.469Z,101098.69
2022-08-18T19:29:08.981Z,101098.31
2022-08-18T19:32:16.406Z,101103.38
2022-08-18T19:35:35.357Z,101097.91
2022-08-18T19:39:02.434Z,101094.28
2022-08-18T19:42:12.867Z,101094.72
2022-08-18T19:45:32.428Z,101094.91
2022-08-18T19:48:53.680Z,101088.94
2022-08-18T19:52:02.918Z,101082.84
2022-08-18T19:55:42.188Z,101075.06
2022-08-18T19:59:18.284Z,101079.97
2022-08-18T20:02:55.740Z,101077.72
2022-08-18T20:06:33.465Z,101077.34
2022-08-18T20:09:40.714Z,101075.13
2022-08-18T20:12:58.130Z,101084.72
2022-08-18T20:16:11.360Z,101082.63
2022-08-18T20:20:05.242Z,101084.63
2022-08-18T20:23:30.359Z,101084.25
2022-08-18T20:26:40.666Z,101080.88
2022-08-18T20:29:46.217Z,101088.75
2022-08-18T20:33:03.292Z,101092.34
2022-08-18T20:36:11.949Z,101093.13
2022-08-18T20:39:32.754Z,101080.25
2022-08-18T20:42:35.275Z,101090.78
2022-08-18T20:45:36.956Z,101091.56
2022-08-18T20:49:06.159Z,101088.34
2022-08-18T20:52:29.555Z,101088.06
2022-08-18T20:55:36.277Z,101082.28
2022-08-18T20:58:47.766Z,101089.00
2022-08-18T21:02:05.799Z,101093.16
2022-08-18T21:05:10.548Z,101093.91
2022-08-18T21:08:31.028Z,101094.81
2022-08-18T21:11:44.885Z,101089.00
2022-08-18T21:14:52.073Z,101097.38
2022-08-18T21:18:17.396Z,101106.47
2022-08-18T21:21:27.162Z,101102.53
2022-08-18T21:24:39.120Z,101099.88
2022-08-18T21:27:44.210Z,101097.63
2022-08-18T21:30:56.305Z,101098.91
2022-08-18T21:34:36.319Z,101090.72
2022-08-18T21:37:41.562Z,101094.56
2022-08-18T21:40:48.393Z,101077.66
2022-08-18T21:43:52.410Z,101079.66
2022-08-18T21:47:05.773Z,101081.66
2022-08-18T21:50:08.519Z,101088.19
2022-08-18T21:53:13.254Z,101086.66
2022-08-18T21:56:31.681Z,101089.34
2022-08-18T21:59:33.361Z,101096.44
2022-08-18T22:02:35.096Z,101085.94
2022-08-18T22:05:57.798Z,101095.72
2022-08-18T22:09:26.936Z,101091.34
2022-08-18T22:12:51.560Z,101095.19
2022-08-18T22:15:53.440Z,101095.44
2022-08-18T22:19:10.004Z,101104.63
2022-08-18T22:22:30.348Z,101096.91
2022-08-18T22:25:32.414Z,101090.38
2022-08-18T22:28:36.797Z,101084.97
2022-08-18T22:31:44.352Z,101096.09
2022-08-18T22:34:45.908Z,101104.59
2022-08-18T22:37:50.691Z,101103.19
2022-08-18T22:40:52.708Z,101099.97
2022-08-18T22:43:55.464Z,101106.63
2022-08-18T22:46:57.274Z,101105.06
2022-08-18T22:49:59.880Z,101107.22
2022-08-18T22:53:02.950Z,101101.09
2022-08-18T22:56:07.203Z,101106.50
2022-08-18T22:59:18.409Z,101103.28
2022-08-18T23:02:22.322Z,101105.25
2022-08-18T23:05:24.777Z,101100.00
2022-08-18T23:08:55.241Z,101095.47
2022-08-18T23:11:48.253Z,101097.47
2022-08-18T23:14:50.239Z,101087.66
2022-08-18T23:17:52.686Z,101090.53
2022-08-18T23:20:59.842Z,101107.84
2022-08-18T23:24:01.467Z,101104.28
2022-08-18T23:27:05.612Z,101104.28
2022-08-18T23:30:08.598Z,101106.13
2022-08-18T23:33:10.755Z,101100.72
2022-08-18T23:36:12.484Z,101099.06
2022-08-18T23:39:14.518Z,101107.13
2022-08-18T23:42:16.528Z,101103.59
2022-08-18T23:45:19.492Z,101120.63
2022-08-18T23:48:21.206Z,101119.75
2022-08-18T23:51:29.433Z,101117.06
2022-08-18T23:54:33.693Z,101121.59
2022-08-18T23:57:36.161Z,101113.50
